createdAt,value
2019-03-15T00:00:29.758Z,28.67
2019-03-15T00:02:59.126Z,29.30
2019-03-15T00:05:27.855Z,29.67
2019-03-15T00:07:57.187Z,31.20
2019-03-15T00:10:26.511Z,30.37
2019-03-15T00:12:55.949Z,29.07
2019-03-15T00:15:25.285Z,28.80
2019-03-15T00:17:54.614Z,29.43
2019-03-15T00:20:36.212Z,28.93
2019-03-15T00:23:04.838Z,28.07
2019-03-15T00:25:34.154Z,27.90
2019-03-15T00:28:03.519Z,27.80
2019-03-15T00:30:32.962Z,28.87
2019-03-15T00:33:02.385Z,28.70
2019-03-15T00:35:31.677Z,29.60
2019-03-15T00:38:01.022Z,30.60
2019-03-15T00:40:30.346Z,28.27
2019-03-15T00:42:59.672Z,29.70
2019-03-15T00:45:29.000Z,29.43
2019-03-15T00:47:58.422Z,28.57
2019-03-15T00:50:27.768Z,32.27
2019-03-15T00:52:57.103Z,31.57
2019-03-15T00:55:26.421Z,31.23
2019-03-15T00:57:55.763Z,30.87
2019-03-15T01:00:25.108Z,30.87
2019-03-15T01:02:54.421Z,31.87
2019-03-15T01:05:23.765Z,31.27
2019-03-15T01:07:53.157Z,29.77
2019-03-15T01:10:22.462Z,31.23
2019-03-15T01:12:51.811Z,31.97
2019-03-15T01:15:21.131Z,31.97
2019-03-15T01:17:50.482Z,33.37
2019-03-15T01:20:19.811Z,33.33
2019-03-15T01:22:49.129Z,32.37
2019-03-15T01:25:18.515Z,32.90
2019-03-15T01:27:47.863Z,33.47
2019-03-15T01:30:17.192Z,34.10
2019-03-15T01:32:46.516Z,32.43
2019-03-15T01:35:15.202Z,34.33
2019-03-15T01:37:44.551Z,32.47
2019-03-15T01:40:13.870Z,32.90
2019-03-15T01:42:43.184Z,34.03
2019-03-15T01:45:12.968Z,33.27
2019-03-15T01:47:42.274Z,34.30
2019-03-15T01:50:11.605Z,32.90
2019-03-15T01:52:40.979Z,32.57
2019-03-15T01:55:10.423Z,34.20
2019-03-15T01:57:39.739Z,34.00
2019-03-15T02:00:09.627Z,31.83
2019-03-15T02:02:38.989Z,34.17
2019-03-15T02:05:08.421Z,32.67
2019-03-15T02:07:37.764Z,32.70
2019-03-15T02:10:07.238Z,31.97
2019-03-15T02:12:36.610Z,31.53
2019-03-15T02:15:18.725Z,34.93
2019-03-15T02:17:48.084Z,32.97
2019-03-15T02:20:17.454Z,33.17
2019-03-15T02:22:46.779Z,32.80
2019-03-15T02:25:16.103Z,32.77
2019-03-15T02:27:45.438Z,32.83
2019-03-15T02:30:14.758Z,33.30
2019-03-15T02:32:44.113Z,34.87
2019-03-15T02:35:13.483Z,31.80
2019-03-15T02:37:42.834Z,32.20
2019-03-15T02:40:12.899Z,34.00
2019-03-15T02:43:01.439Z,34.23
2019-03-15T02:45:30.809Z,33.73
2019-03-15T02:48:00.135Z,34.23
2019-03-15T02:50:29.619Z,33.67
2019-03-15T02:52:59.012Z,33.17
2019-03-15T02:55:28.333Z,34.40
2019-03-15T02:57:57.666Z,34.87
2019-03-15T03:00:26.233Z,35.90
2019-03-15T03:02:55.555Z,37.50
2019-03-15T03:05:24.884Z,35.27
2019-03-15T03:07:54.207Z,37.70
2019-03-15T03:10:23.677Z,37.03
2019-03-15T03:12:53.005Z,34.57
2019-03-15T03:15:22.349Z,35.00
2019-03-15T03:17:51.682Z,36.30
2019-03-15T03:20:21.343Z,35.83
2019-03-15T03:23:10.269Z,36.07
2019-03-15T03:25:39.620Z,38.63
2019-03-15T03:28:09.057Z,34.53
2019-03-15T03:30:38.472Z,37.93
2019-03-15T03:33:07.802Z,39.93
2019-03-15T03:35:37.136Z,37.83
2019-03-15T03:38:06.471Z,38.43
2019-03-15T03:40:35.807Z,40.37
2019-03-15T03:43:05.137Z,40.33
2019-03-15T03:45:34.555Z,39.63
2019-03-15T03:48:03.893Z,36.83
2019-03-15T03:50:33.343Z,36.27
2019-03-15T03:53:02.664Z,36.50
2019-03-15T03:55:32.065Z,36.67
2019-03-15T03:58:02.385Z,36.83
2019-03-15T04:06:36.198Z,36.37
2019-03-15T04:09:07.376Z,37.67
2019-03-15T04:11:35.912Z,38.27
2019-03-15T04:14:05.256Z,37.40
2019-03-15T04:16:34.598Z,37.63
2019-03-15T04:19:04.032Z,37.73
2019-03-15T04:21:33.385Z,36.60
2019-03-15T04:24:02.869Z,38.50
2019-03-15T04:26:32.203Z,36.00
2019-03-15T04:29:01.543Z,35.23
2019-03-15T04:31:30.880Z,38.47
2019-03-15T04:34:00.213Z,35.87
2019-03-15T04:36:29.530Z,35.87
2019-03-15T04:38:58.072Z,34.90
2019-03-15T04:41:27.400Z,34.70
2019-03-15T04:43:56.720Z,35.20
2019-03-15T04:46:26.161Z,35.03
2019-03-15T04:48:55.531Z,33.00
2019-03-15T04:51:24.857Z,33.30
2019-03-15T04:53:54.190Z,33.77
2019-03-15T04:56:23.515Z,35.07
2019-03-15T04:58:52.853Z,34.80
2019-03-15T05:01:22.189Z,35.27
2019-03-15T05:03:51.516Z,35.90
2019-03-15T05:06:20.887Z,36.07
2019-03-15T05:08:50.207Z,32.20
2019-03-15T05:11:19.533Z,29.97
2019-03-15T05:13:48.850Z,30.60
2019-03-15T05:16:18.224Z,27.70
2019-03-15T05:18:47.552Z,29.30
2019-03-15T05:21:16.911Z,28.20
2019-03-15T05:23:46.259Z,30.57
2019-03-15T05:26:15.591Z,30.70
2019-03-15T05:28:44.924Z,28.67
2019-03-15T05:31:14.249Z,23.63
2019-03-15T05:33:42.812Z,22.90
2019-03-15T05:36:12.232Z,22.07
2019-03-15T05:38:41.588Z,22.23
2019-03-15T05:41:10.902Z,23.93
2019-03-15T05:43:40.234Z,23.70
2019-03-15T05:46:08.759Z,23.27
2019-03-15T05:48:38.120Z,26.50
2019-03-15T05:51:07.455Z,29.70
2019-03-15T05:53:36.802Z,30.57
2019-03-15T05:56:06.168Z,30.40
2019-03-15T05:58:34.703Z,32.57
2019-03-15T06:01:04.267Z,31.83
2019-03-15T06:03:47.518Z,32.43
2019-03-15T06:06:22.868Z,29.33
2019-03-15T06:08:52.245Z,28.53
2019-03-15T06:11:21.598Z,29.00
2019-03-15T06:13:50.906Z,30.47
2019-03-15T06:16:20.241Z,28.77
2019-03-15T06:18:49.576Z,27.93
2019-03-15T06:21:18.894Z,28.20
2019-03-15T06:23:48.229Z,31.00
2019-03-15T06:26:17.583Z,30.40
2019-03-15T06:28:46.921Z,31.37
2019-03-15T06:31:16.288Z,32.80
2019-03-15T06:33:45.654Z,28.57
2019-03-15T06:36:15.016Z,31.43
2019-03-15T06:38:44.368Z,28.90
2019-03-15T06:41:14.565Z,21.67
2019-03-15T06:44:03.072Z,23.70
2019-03-15T06:46:32.417Z,22.77
2019-03-15T06:49:01.742Z,19.30
2019-03-15T06:51:31.094Z,18.87
2019-03-15T06:54:10.958Z,20.33
2019-03-15T06:56:49.729Z,22.40
2019-03-15T06:59:19.071Z,21.30
2019-03-15T07:01:48.420Z,20.80
2019-03-15T07:04:17.735Z,21.63
2019-03-15T07:06:47.149Z,36.43
2019-03-15T07:09:16.472Z,24.77
2019-03-15T07:11:45.808Z,23.27
2019-03-15T07:14:15.975Z,23.10
2019-03-15T07:16:44.707Z,24.83
2019-03-15T07:19:25.689Z,21.20
2019-03-15T07:22:03.304Z,19.17
2019-03-15T07:24:44.288Z,14.87
2019-03-15T07:27:13.593Z,14.73
2019-03-15T07:30:02.113Z,14.37
2019-03-15T07:32:31.459Z,13.03
2019-03-15T07:35:00.850Z,13.30
2019-03-15T07:37:30.217Z,13.07
2019-03-15T07:39:59.610Z,13.10
2019-03-15T07:42:29.016Z,13.70
2019-03-15T07:44:58.386Z,11.97
2019-03-15T07:47:27.741Z,13.90
2019-03-15T07:52:58.385Z,12.43
2019-03-15T07:55:27.744Z,11.90
2019-03-15T08:01:00.108Z,13.77
2019-03-15T08:03:29.446Z,15.03
2019-03-15T08:05:58.783Z,17.27
2019-03-15T08:08:28.215Z,17.40
2019-03-15T08:10:57.605Z,20.30
2019-03-15T08:13:27.528Z,16.33
2019-03-15T08:15:56.884Z,14.90
2019-03-15T08:18:26.206Z,18.07
2019-03-15T08:20:55.562Z,16.40
2019-03-15T08:23:24.172Z,13.93
2019-03-15T08:25:53.521Z,16.33
2019-03-15T08:28:22.955Z,17.30
2019-03-15T08:30:52.270Z,16.43
2019-03-15T08:33:20.913Z,15.63
2019-03-15T08:35:50.242Z,16.07
2019-03-15T08:38:19.581Z,14.33
2019-03-15T08:40:48.952Z,14.87
2019-03-15T08:43:18.287Z,15.30
2019-03-15T08:45:47.625Z,14.77
2019-03-15T08:48:17.031Z,15.47
2019-03-15T08:50:46.325Z,15.37
2019-03-15T08:53:15.669Z,15.70
2019-03-15T08:55:45.026Z,12.87
2019-03-15T08:58:21.367Z,15.97
2019-03-15T09:01:03.704Z,14.43
2019-03-15T09:03:34.490Z,14.30
2019-03-15T09:06:22.295Z,13.80
2019-03-15T09:08:51.637Z,15.20
2019-03-15T09:11:20.976Z,13.63
2019-03-15T09:13:50.324Z,14.60
2019-03-15T09:16:19.685Z,13.90
2019-03-15T09:18:49.046Z,15.50
2019-03-15T09:21:18.392Z,14.90
2019-03-15T09:23:47.736Z,15.47
2019-03-15T09:26:17.192Z,13.97
2019-03-15T09:28:46.522Z,13.17
2019-03-15T09:31:15.122Z,13.10
2019-03-15T09:33:44.569Z,13.40
2019-03-15T09:36:13.898Z,13.30
2019-03-15T09:38:43.231Z,13.33
2019-03-15T09:41:12.580Z,13.37
2019-03-15T09:43:53.633Z,15.03
2019-03-15T09:46:22.184Z,13.33
2019-03-15T09:48:51.509Z,13.43
2019-03-15T09:51:20.844Z,13.90
2019-03-15T09:53:50.186Z,13.30
2019-03-15T09:56:19.532Z,12.20
2019-03-15T09:58:48.859Z,12.43
2019-03-15T10:01:34.189Z,11.80
2019-03-15T10:04:07.545Z,12.60
2019-03-15T10:06:37.009Z,12.27
2019-03-15T10:09:06.739Z,10.43
2019-03-15T10:11:36.091Z,11.23
2019-03-15T10:14:05.490Z,11.07
2019-03-15T10:16:34.862Z,11.97
2019-03-15T10:19:03.454Z,11.10
2019-03-15T10:21:32.797Z,11.67
2019-03-15T10:24:01.528Z,11.33
2019-03-15T10:26:30.872Z,11.53
2019-03-15T10:29:00.229Z,10.13
2019-03-15T10:31:29.577Z,9.57
2019-03-15T10:33:58.943Z,10.13
2019-03-15T10:36:28.302Z,9.17
2019-03-15T10:38:57.746Z,8.87
2019-03-15T10:47:12.281Z,9.33
2019-03-15T10:52:43.201Z,9.30
2019-03-15T10:58:14.339Z,9.63
2019-03-15T11:03:45.189Z,10.10
2019-03-15T11:09:16.425Z,9.23
2019-03-15T11:11:45.805Z,9.23
2019-03-15T11:17:16.802Z,9.87
2019-03-15T11:22:47.812Z,9.87
2019-03-15T11:25:17.160Z,10.47
2019-03-15T11:30:28.732Z,10.60
2019-03-15T11:32:58.213Z,9.70
2019-03-15T11:35:27.577Z,10.53
2019-03-15T11:37:56.938Z,9.70
2019-03-15T11:40:26.308Z,9.40
2019-03-15T11:42:55.672Z,10.07
2019-03-15T11:45:25.045Z,11.90
2019-03-15T11:48:03.288Z,11.00
2019-03-15T11:50:43.628Z,10.87
2019-03-15T11:53:12.992Z,11.67
2019-03-15T11:58:25.881Z,11.20
2019-03-15T12:01:06.573Z,10.97
2019-03-15T12:03:35.238Z,10.67
2019-03-15T12:09:07.109Z,10.60
2019-03-15T12:14:41.172Z,10.60
2019-03-15T12:20:11.616Z,10.53
2019-03-15T12:22:40.942Z,10.20
2019-03-15T12:28:12.191Z,10.47
2019-03-15T12:30:43.009Z,9.97
2019-03-15T12:33:30.807Z,10.50
2019-03-15T12:36:03.224Z,9.70
2019-03-15T12:38:49.472Z,11.00
2019-03-15T12:44:21.661Z,10.00
2019-03-15T12:46:50.989Z,10.60
2019-03-15T12:49:20.343Z,10.97
2019-03-15T12:52:02.150Z,9.70
2019-03-15T12:57:33.690Z,10.17
2019-03-15T13:00:03.821Z,10.57
2019-03-15T13:05:36.154Z,10.73
2019-03-15T13:08:05.489Z,11.33
2019-03-15T13:10:34.924Z,10.10
2019-03-15T13:13:04.628Z,10.93
2019-03-15T13:15:33.998Z,10.27
2019-03-15T13:18:03.338Z,12.37
2019-03-15T13:20:32.689Z,11.33
2019-03-15T13:23:02.192Z,11.07
2019-03-15T13:25:31.653Z,10.50
2019-03-15T13:28:01.011Z,10.17
2019-03-15T13:30:30.352Z,10.50
2019-03-15T13:32:59.693Z,10.43
2019-03-15T13:35:29.030Z,11.23
2019-03-15T13:37:58.383Z,10.03
2019-03-15T13:40:27.869Z,10.83
2019-03-15T13:49:02.792Z,9.53
2019-03-15T13:51:32.117Z,10.67
2019-03-15T13:54:01.460Z,10.33
2019-03-15T13:56:30.809Z,10.13
2019-03-15T13:59:00.207Z,10.27
2019-03-15T14:01:29.582Z,10.37
2019-03-15T14:03:58.932Z,8.97
2019-03-15T14:06:28.292Z,10.77
2019-03-15T14:08:57.661Z,10.23
2019-03-15T14:11:27.031Z,11.63
2019-03-15T14:13:56.408Z,10.60
2019-03-15T14:16:25.753Z,11.20
2019-03-15T14:21:57.361Z,10.77
2019-03-15T14:24:38.838Z,10.40
2019-03-15T14:27:07.357Z,10.73
2019-03-15T14:29:36.726Z,10.97
2019-03-15T14:32:06.987Z,10.97
2019-03-15T14:34:55.287Z,10.87
2019-03-15T14:37:24.630Z,10.50
2019-03-15T14:39:54.273Z,10.60
2019-03-15T14:42:23.623Z,11.07
2019-03-15T14:44:53.024Z,14.03
2019-03-15T14:47:22.455Z,14.70
2019-03-15T14:49:51.942Z,13.33
2019-03-15T14:52:21.286Z,12.20
2019-03-15T14:54:50.614Z,12.07
2019-03-15T14:57:19.936Z,12.00
2019-03-15T14:59:49.277Z,10.80
2019-03-15T15:02:18.647Z,9.77
2019-03-15T15:04:47.974Z,10.57
2019-03-15T15:07:17.315Z,10.67
2019-03-15T15:09:47.623Z,10.43
2019-03-15T15:12:35.982Z,9.30
2019-03-15T15:15:19.124Z,11.57
2019-03-15T15:20:51.335Z,11.80
2019-03-15T15:23:20.716Z,11.07
2019-03-15T15:25:50.055Z,11.57
2019-03-15T15:28:19.383Z,11.43
2019-03-15T15:33:51.576Z,11.77
2019-03-15T15:36:20.931Z,12.13
2019-03-15T15:38:50.312Z,11.13
2019-03-15T15:41:19.627Z,12.07
2019-03-15T15:43:49.003Z,11.93
2019-03-15T15:49:01.939Z,12.57
2019-03-15T15:51:31.400Z,13.77
2019-03-15T15:54:00.743Z,12.10
2019-03-15T15:56:30.090Z,13.37
2019-03-15T15:58:59.404Z,13.17
2019-03-15T16:01:28.739Z,14.47
2019-03-15T16:03:58.057Z,14.60
2019-03-15T16:06:27.415Z,14.27
2019-03-15T16:08:56.751Z,13.50
2019-03-15T16:14:28.699Z,20.03
2019-03-15T16:20:00.386Z,15.77
2019-03-15T16:22:49.404Z,16.60
2019-03-15T16:25:18.728Z,15.03
2019-03-15T16:27:48.059Z,14.23
2019-03-15T16:30:17.400Z,15.23
2019-03-15T16:32:46.799Z,16.60
2019-03-15T16:38:18.080Z,17.50
2019-03-15T16:40:47.411Z,19.30
2019-03-15T16:43:16.773Z,24.17
2019-03-15T16:45:46.108Z,39.43
2019-03-15T16:54:20.501Z,34.77
2019-03-15T16:56:49.852Z,28.37
2019-03-15T16:59:19.844Z,28.83
2019-03-15T17:01:48.491Z,24.27
2019-03-15T17:07:20.373Z,31.60
2019-03-15T17:09:49.719Z,30.33
2019-03-15T17:12:19.134Z,31.00
2019-03-15T17:14:48.492Z,32.67
2019-03-15T17:20:20.474Z,21.77
2019-03-15T17:22:49.925Z,19.73
2019-03-15T17:25:18.562Z,23.90
2019-03-15T17:27:48.268Z,25.03
2019-03-15T17:30:17.625Z,25.87
2019-03-15T17:32:47.081Z,34.77
2019-03-15T17:35:16.570Z,31.07
2019-03-15T17:37:45.908Z,32.00
2019-03-15T17:40:15.295Z,30.93
2019-03-15T17:42:44.703Z,31.90
2019-03-15T17:45:14.056Z,31.83
2019-03-15T17:47:43.501Z,28.87
2019-03-15T17:50:14.023Z,30.37
2019-03-15T17:55:45.549Z,28.53
2019-03-15T17:58:14.893Z,28.47
2019-03-15T18:00:45.135Z,29.13
2019-03-15T18:03:26.754Z,27.20
2019-03-15T18:05:55.318Z,28.93
2019-03-15T18:08:24.666Z,26.30
2019-03-15T18:16:39.722Z,30.27
2019-03-15T18:19:09.232Z,32.43
2019-03-15T18:21:39.043Z,36.03
2019-03-15T18:24:08.447Z,44.37
2019-03-15T18:26:37.871Z,45.50
2019-03-15T18:29:07.301Z,50.83
2019-03-15T18:31:36.675Z,53.67
2019-03-15T18:47:14.265Z,56.60
2019-03-15T18:49:43.618Z,51.30
2019-03-15T18:52:12.962Z,47.00
2019-03-15T18:54:42.296Z,47.97
2019-03-15T18:57:11.632Z,44.13
2019-03-15T18:59:41.149Z,44.03
2019-03-15T19:02:10.526Z,43.17
2019-03-15T19:04:39.898Z,42.50
2019-03-15T19:07:09.258Z,43.40
2019-03-15T19:09:38.642Z,41.03
2019-03-15T19:12:08.014Z,40.50
2019-03-15T19:14:37.501Z,38.13
2019-03-15T19:17:06.943Z,38.93
2019-03-15T19:19:36.339Z,38.90
2019-03-15T19:22:05.787Z,37.13
2019-03-15T19:24:35.186Z,39.50
2019-03-15T19:27:04.122Z,40.83
2019-03-15T19:29:33.508Z,43.83
2019-03-15T19:32:03.111Z,42.53
2019-03-15T19:34:32.583Z,42.13
2019-03-15T19:37:02.129Z,40.10
2019-03-15T19:39:31.643Z,39.93
2019-03-15T19:42:01.223Z,39.53
2019-03-15T19:44:30.662Z,40.20
2019-03-15T19:47:00.077Z,39.23
2019-03-15T19:49:29.475Z,39.13
2019-03-15T19:51:58.852Z,36.53
2019-03-15T19:54:31.684Z,35.93
2019-03-15T19:57:17.713Z,33.47
2019-03-15T19:59:47.112Z,32.80
2019-03-15T20:02:16.687Z,33.67
2019-03-15T20:04:46.028Z,33.90
2019-03-15T20:07:14.723Z,32.30
2019-03-15T20:09:44.135Z,33.23
2019-03-15T20:12:13.569Z,33.33
2019-03-15T20:14:43.000Z,35.87
2019-03-15T20:17:12.345Z,35.03
2019-03-15T20:19:41.673Z,34.87
2019-03-15T20:22:11.003Z,32.00
2019-03-15T20:24:40.347Z,32.03
2019-03-15T20:27:09.672Z,28.10
2019-03-15T20:29:39.017Z,21.77
2019-03-15T20:32:08.340Z,22.27
2019-03-15T20:34:37.678Z,23.40
2019-03-15T20:37:07.026Z,27.13
2019-03-15T20:39:36.366Z,29.57
2019-03-15T20:42:05.706Z,29.40
2019-03-15T20:44:35.043Z,31.27
2019-03-15T20:47:04.417Z,28.37
2019-03-15T20:49:36.286Z,29.93
2019-03-15T20:52:22.291Z,29.77
2019-03-15T20:54:51.638Z,28.83
2019-03-15T20:57:21.027Z,30.70
2019-03-15T20:59:50.350Z,30.70
2019-03-15T21:02:19.756Z,28.90
2019-03-15T21:04:49.076Z,30.37
2019-03-15T21:07:18.405Z,30.10
2019-03-15T21:09:47.761Z,28.03
2019-03-15T21:12:17.097Z,26.87
2019-03-15T21:14:46.450Z,27.13
2019-03-15T21:17:15.767Z,30.13
2019-03-15T21:19:45.111Z,30.83
2019-03-15T21:22:14.424Z,30.83
2019-03-15T21:24:43.772Z,28.93
2019-03-15T21:27:13.129Z,29.30
2019-03-15T21:29:42.576Z,28.10
2019-03-15T21:32:12.013Z,27.57
2019-03-15T21:34:41.460Z,26.67
2019-03-15T21:37:10.805Z,25.60
2019-03-15T21:42:55.178Z,22.87
2019-03-15T21:48:25.966Z,23.10
2019-03-15T21:50:55.295Z,21.40
2019-03-15T21:53:24.621Z,22.00
2019-03-15T21:55:53.957Z,21.63
2019-03-15T21:58:23.308Z,23.80
2019-03-15T22:01:02.252Z,22.07
2019-03-15T22:03:41.891Z,23.00
2019-03-15T22:06:11.224Z,23.83
2019-03-15T22:08:40.591Z,24.37
2019-03-15T22:11:20.560Z,23.70
2019-03-15T22:13:59.250Z,23.07
2019-03-15T22:16:28.597Z,22.03
2019-03-15T22:18:57.931Z,23.70
2019-03-15T22:21:27.298Z,22.80
2019-03-15T22:23:56.623Z,22.73
2019-03-15T22:26:25.978Z,23.20
2019-03-15T22:28:55.307Z,20.33
2019-03-15T22:31:24.641Z,22.03
2019-03-15T22:36:49.405Z,22.50
2019-03-15T22:42:20.895Z,21.43
2019-03-15T22:44:50.252Z,20.27
2019-03-15T22:47:19.615Z,21.00
2019-03-15T22:49:48.956Z,20.40
2019-03-15T22:52:18.315Z,20.93
2019-03-15T22:57:59.307Z,20.40
2019-03-15T23:00:39.262Z,21.50
2019-03-15T23:03:08.601Z,23.43
2019-03-15T23:05:37.929Z,23.53
2019-03-15T23:08:07.265Z,24.60
2019-03-15T23:10:36.603Z,23.60
2019-03-15T23:13:05.913Z,23.13
2019-03-15T23:15:35.246Z,24.43
2019-03-15T23:18:04.599Z,24.13
2019-03-15T23:20:33.955Z,25.33
2019-03-15T23:23:03.284Z,23.13
2019-03-15T23:25:32.628Z,24.20
2019-03-15T23:28:01.965Z,24.90
2019-03-15T23:30:31.356Z,25.27
2019-03-15T23:33:00.675Z,25.37
2019-03-15T23:35:30.017Z,25.30
2019-03-15T23:37:59.334Z,25.00
2019-03-15T23:40:28.668Z,25.07
2019-03-15T23:42:58.002Z,22.97
2019-03-15T23:45:27.320Z,22.20
2019-03-15T23:47:56.661Z,21.23
2019-03-15T23:53:28.025Z,18.43
2019-03-15T23:55:57.438Z,18.33
2019-03-15T23:58:26.795Z,18.77
